createdAt,value
2022-11-08T00:00:14.134Z,16.10
2022-11-08T00:02:41.325Z,17.30
2022-11-08T00:05:27.332Z,16.08
2022-11-08T00:08:13.089Z,16.88
2022-11-08T00:10:58.746Z,16.58
2022-11-08T00:13:44.472Z,16.52
2022-11-08T00:16:11.550Z,15.77
2022-11-08T00:18:38.700Z,15.15
2022-11-08T00:21:05.727Z,17.15
2022-11-08T00:23:32.653Z,16.67
2022-11-08T00:25:59.769Z,16.52
2022-11-08T00:28:26.899Z,16.00
2022-11-08T00:30:53.857Z,15.57
2022-11-08T00:33:20.816Z,14.82
2022-11-08T00:35:47.801Z,16.42
2022-11-08T00:38:14.927Z,15.45
2022-11-08T00:40:41.929Z,16.63
2022-11-08T00:43:09.040Z,15.82
2022-11-08T00:45:36.096Z,15.85
2022-11-08T00:48:03.078Z,16.13
2022-11-08T00:50:30.079Z,16.38
2022-11-08T00:52:57.028Z,15.63
2022-11-08T00:55:23.956Z,15.85
2022-11-08T00:57:59.698Z,15.00
2022-11-08T01:00:27.527Z,15.82
2022-11-08T01:03:14.817Z,15.05
2022-11-08T01:05:42.155Z,15.05
2022-11-08T01:08:10.443Z,15.80
2022-11-08T01:10:38.163Z,15.82
2022-11-08T01:13:05.038Z,15.77
2022-11-08T01:15:36.982Z,14.77
2022-11-08T01:18:05.060Z,14.90
2022-11-08T01:20:32.371Z,15.27
2022-11-08T01:22:59.411Z,14.35
2022-11-08T01:25:26.419Z,16.02
2022-11-08T01:27:53.269Z,15.10
2022-11-08T01:30:20.187Z,16.17
2022-11-08T01:32:47.175Z,16.38
2022-11-08T01:35:14.193Z,14.93
2022-11-08T01:37:41.114Z,15.48
2022-11-08T01:40:08.811Z,15.05
2022-11-08T01:42:35.658Z,15.90
2022-11-08T01:45:06.496Z,14.75
2022-11-08T01:47:33.575Z,15.75
2022-11-08T01:50:20.707Z,16.08
2022-11-08T01:52:55.474Z,14.18
2022-11-08T01:55:37.048Z,15.10
2022-11-08T01:58:08.237Z,14.35
2022-11-08T02:00:37.991Z,14.00
2022-11-08T02:03:07.558Z,14.85
2022-11-08T02:05:34.721Z,14.98
2022-11-08T02:08:18.104Z,14.23
2022-11-08T02:10:49.757Z,15.10
2022-11-08T02:13:20.791Z,14.23
2022-11-08T02:15:47.969Z,14.30
2022-11-08T02:18:17.073Z,14.75
2022-11-08T02:20:58.660Z,14.63
2022-11-08T02:23:47.581Z,15.07
2022-11-08T02:26:16.572Z,15.07
2022-11-08T02:28:45.371Z,14.70
2022-11-08T02:31:14.246Z,14.80
2022-11-08T02:33:41.878Z,12.35
2022-11-08T02:36:12.381Z,14.00
2022-11-08T02:38:43.130Z,15.18
2022-11-08T02:41:09.947Z,14.77
2022-11-08T02:43:36.792Z,14.32
2022-11-08T02:46:03.806Z,14.23
2022-11-08T02:48:30.626Z,13.40
2022-11-08T02:50:57.505Z,13.13
2022-11-08T02:53:24.428Z,14.77
2022-11-08T02:55:51.349Z,15.10
2022-11-08T02:58:18.630Z,14.48
2022-11-08T03:00:45.863Z,14.90
2022-11-08T03:03:12.856Z,15.20
2022-11-08T03:05:39.973Z,14.48
2022-11-08T03:08:07.198Z,15.20
2022-11-08T03:10:34.314Z,14.30
2022-11-08T03:13:03.802Z,13.93
2022-11-08T03:15:30.875Z,14.63
2022-11-08T03:17:58.849Z,13.55
2022-11-08T03:20:32.142Z,14.82
2022-11-08T03:23:05.012Z,14.88
2022-11-08T03:25:32.120Z,14.27
2022-11-08T03:28:04.177Z,13.60
2022-11-08T03:30:31.511Z,13.95
2022-11-08T03:32:58.409Z,12.57
2022-11-08T03:35:25.325Z,13.98
2022-11-08T03:37:53.806Z,13.70
2022-11-08T03:40:20.929Z,14.90
2022-11-08T03:42:48.016Z,14.13
2022-11-08T03:45:15.450Z,13.38
2022-11-08T03:47:47.615Z,14.38
2022-11-08T03:50:16.557Z,13.30
2022-11-08T03:52:45.553Z,14.55
2022-11-08T03:55:13.644Z,13.90
2022-11-08T03:57:41.849Z,14.40
2022-11-08T04:00:11.327Z,15.25
2022-11-08T04:02:38.383Z,13.82
2022-11-08T04:05:06.775Z,15.38
2022-11-08T04:07:34.464Z,14.43
2022-11-08T04:10:01.538Z,13.18
2022-11-08T04:12:46.931Z,14.45
2022-11-08T04:15:15.941Z,13.98
2022-11-08T04:18:02.556Z,14.95
2022-11-08T04:20:48.714Z,13.50
2022-11-08T04:23:16.899Z,13.60
2022-11-08T04:25:44.696Z,13.40
2022-11-08T04:28:12.081Z,14.60
2022-11-08T04:30:38.989Z,14.07
2022-11-08T04:33:07.164Z,13.63
2022-11-08T04:35:34.243Z,14.45
2022-11-08T04:38:02.252Z,14.13
2022-11-08T04:40:31.381Z,13.88
2022-11-08T04:42:58.340Z,14.68
2022-11-08T04:45:25.263Z,13.68
2022-11-08T04:47:52.236Z,14.93
2022-11-08T04:50:19.155Z,13.45
2022-11-08T04:52:53.175Z,13.93
2022-11-08T04:55:21.552Z,14.93
2022-11-08T04:57:49.620Z,13.40
2022-11-08T05:00:17.938Z,14.52
2022-11-08T05:02:45.216Z,14.38
2022-11-08T05:05:12.231Z,13.82
2022-11-08T05:07:39.199Z,13.80
2022-11-08T05:10:06.807Z,14.10
2022-11-08T05:12:33.902Z,15.77
2022-11-08T05:15:00.998Z,14.95
2022-11-08T05:17:27.925Z,14.30
2022-11-08T05:20:13.482Z,14.68
2022-11-08T05:22:58.999Z,15.50
2022-11-08T05:25:26.120Z,15.18
2022-11-08T05:27:53.273Z,15.32
2022-11-08T05:30:20.242Z,13.93
2022-11-08T05:32:47.191Z,15.05
2022-11-08T05:35:14.228Z,15.05
2022-11-08T05:37:42.333Z,13.85
2022-11-08T05:40:10.266Z,15.35
2022-11-08T05:42:37.138Z,16.48
2022-11-08T05:45:09.238Z,15.68
2022-11-08T05:47:37.756Z,16.85
2022-11-08T05:50:05.072Z,13.18
2022-11-08T05:52:32.072Z,18.15
2022-11-08T05:54:59.176Z,15.15
2022-11-08T05:57:27.183Z,15.60
2022-11-08T05:59:54.239Z,13.80
2022-11-08T06:02:21.486Z,16.35
2022-11-08T06:04:49.609Z,18.20
2022-11-08T06:07:16.564Z,17.60
2022-11-08T06:09:43.705Z,13.98
2022-11-08T06:12:11.194Z,15.93
2022-11-08T06:14:38.178Z,16.60
2022-11-08T06:17:05.029Z,15.65
2022-11-08T06:19:31.921Z,14.77
2022-11-08T06:21:58.759Z,16.80
2022-11-08T06:24:25.955Z,16.58
2022-11-08T06:26:52.959Z,15.00
2022-11-08T06:29:19.965Z,14.90
2022-11-08T06:31:47.031Z,14.98
2022-11-08T06:34:14.023Z,14.77
2022-11-08T06:36:41.148Z,16.80
2022-11-08T06:39:08.243Z,13.38
2022-11-08T06:41:35.378Z,14.45
2022-11-08T06:44:02.404Z,14.60
2022-11-08T06:46:29.512Z,14.32
2022-11-08T06:48:56.605Z,13.68
2022-11-08T06:51:23.624Z,13.70
2022-11-08T06:53:50.815Z,13.90
2022-11-08T06:56:17.969Z,14.98
2022-11-08T06:58:44.891Z,16.00
2022-11-08T07:01:12.098Z,16.50
2022-11-08T07:03:39.080Z,15.15
2022-11-08T07:06:06.896Z,13.38
2022-11-08T07:08:35.090Z,14.43
2022-11-08T07:11:03.216Z,15.13
2022-11-08T07:13:30.687Z,13.50
2022-11-08T07:16:04.659Z,16.80
2022-11-08T07:18:32.621Z,14.75
2022-11-08T07:21:01.425Z,16.50
2022-11-08T07:23:28.826Z,15.30
2022-11-08T07:25:56.006Z,15.52
2022-11-08T07:28:22.914Z,14.95
2022-11-08T07:30:49.976Z,15.73
2022-11-08T07:33:17.864Z,14.90
2022-11-08T07:35:47.273Z,14.40
2022-11-08T07:38:14.394Z,14.75
2022-11-08T07:40:41.922Z,14.82
2022-11-08T07:43:13.110Z,14.93
2022-11-08T07:45:41.744Z,15.65
2022-11-08T07:48:12.646Z,14.23
2022-11-08T07:50:43.731Z,15.27
2022-11-08T07:53:11.188Z,15.43
2022-11-08T07:55:39.798Z,16.40
2022-11-08T07:58:08.268Z,14.32
2022-11-08T08:00:37.901Z,15.10
2022-11-08T08:03:06.962Z,14.40
2022-11-08T08:05:36.631Z,15.02
2022-11-08T08:08:04.452Z,15.82
2022-11-08T08:10:32.487Z,15.80
2022-11-08T08:12:59.540Z,15.68
2022-11-08T08:15:26.958Z,16.88
2022-11-08T08:17:53.953Z,15.88
2022-11-08T08:20:20.903Z,17.48
2022-11-08T08:22:50.634Z,16.70
2022-11-08T08:25:18.540Z,17.67
2022-11-08T08:27:57.703Z,16.08
2022-11-08T08:30:25.301Z,15.95
2022-11-08T08:33:21.820Z,16.02
2022-11-08T08:35:43.163Z,16.20
2022-11-08T08:38:11.580Z,16.20
2022-11-08T08:40:39.251Z,16.38
2022-11-08T08:43:06.821Z,16.05
2022-11-08T08:45:35.456Z,19.40
2022-11-08T08:48:03.509Z,19.50
2022-11-08T08:50:32.220Z,21.40
2022-11-08T08:53:00.524Z,17.05
2022-11-08T08:55:27.977Z,20.80
2022-11-08T08:57:55.411Z,18.33
2022-11-08T09:03:11.533Z,17.10
2022-11-08T09:05:44.201Z,18.88
2022-11-08T09:08:12.001Z,20.38
2022-11-08T09:10:38.944Z,18.33
2022-11-08T09:13:06.087Z,20.42
2022-11-08T09:15:33.443Z,21.70
2022-11-08T09:18:00.941Z,24.30
2022-11-08T09:20:27.963Z,23.90
2022-11-08T09:22:54.832Z,19.08
2022-11-08T09:25:21.829Z,19.80
2022-11-08T09:27:48.778Z,18.77
2022-11-08T09:30:15.724Z,21.83
2022-11-08T09:35:30.183Z,22.13
2022-11-08T09:37:58.467Z,19.70
2022-11-08T09:40:37.466Z,22.08
2022-11-08T09:43:34.305Z,20.45
2022-11-08T09:46:01.201Z,19.35
2022-11-08T09:48:45.337Z,21.17
2022-11-08T09:51:21.470Z,21.08
2022-11-08T09:53:58.709Z,22.40
2022-11-08T09:56:30.199Z,23.70
2022-11-08T09:59:04.767Z,21.13
2022-11-08T10:01:34.744Z,22.58
2022-11-08T10:04:21.436Z,23.02
2022-11-08T10:07:29.748Z,21.77
2022-11-08T10:10:06.198Z,22.88
2022-11-08T10:12:58.749Z,21.30
2022-11-08T10:15:37.702Z,20.98
2022-11-08T10:18:20.554Z,22.73
2022-11-08T10:21:32.535Z,22.30
2022-11-08T10:24:03.425Z,20.77
2022-11-08T10:26:37.848Z,23.80
2022-11-08T10:29:15.671Z,23.55
2022-11-08T10:31:46.215Z,22.85
2022-11-08T10:34:25.844Z,24.63
2022-11-08T10:36:59.409Z,22.88
2022-11-08T10:39:33.530Z,23.27
2022-11-08T10:42:23.485Z,23.50
2022-11-08T10:44:50.464Z,22.88
2022-11-08T10:47:37.121Z,24.45
2022-11-08T10:50:40.280Z,24.35
2022-11-08T10:53:17.116Z,23.83
2022-11-08T10:55:51.310Z,23.30
2022-11-08T10:58:39.866Z,29.77
2022-11-08T11:01:24.518Z,28.52
2022-11-08T11:03:53.290Z,27.42
2022-11-08T11:06:27.644Z,26.70
2022-11-08T11:08:58.048Z,26.13
2022-11-08T11:11:30.807Z,27.45
2022-11-08T11:14:16.181Z,26.52
2022-11-08T11:17:00.449Z,29.38
2022-11-08T11:19:28.685Z,26.98
2022-11-08T11:22:05.138Z,29.05
2022-11-08T11:24:34.538Z,27.60
2022-11-08T11:27:07.786Z,29.38
2022-11-08T11:29:38.776Z,26.00
2022-11-08T11:32:24.207Z,23.13
2022-11-08T11:34:53.746Z,22.85
2022-11-08T11:37:35.377Z,22.30
2022-11-08T11:40:07.397Z,20.55
2022-11-08T11:42:46.478Z,19.85
2022-11-08T11:45:50.610Z,20.60
2022-11-08T11:48:42.431Z,20.65
2022-11-08T11:51:11.053Z,20.70
2022-11-08T11:53:47.583Z,21.30
2022-11-08T11:56:44.903Z,22.35
2022-11-08T11:59:56.460Z,21.30
2022-11-08T12:03:03.265Z,21.60
2022-11-08T12:05:33.396Z,20.80
2022-11-08T12:08:09.342Z,21.80
2022-11-08T12:11:07.387Z,22.10
2022-11-08T12:13:37.479Z,21.38
2022-11-08T12:16:33.581Z,21.23
2022-11-08T12:19:03.374Z,20.92
2022-11-08T12:22:05.222Z,21.65
2022-11-08T12:24:44.553Z,21.88
2022-11-08T12:27:23.698Z,21.38
2022-11-08T12:30:21.481Z,21.08
2022-11-08T12:33:07.202Z,21.48
2022-11-08T12:35:45.107Z,21.55
2022-11-08T12:38:24.928Z,21.95
2022-11-08T12:41:15.403Z,22.60
2022-11-08T12:43:48.110Z,21.23
2022-11-08T12:46:19.625Z,22.95
2022-11-08T12:49:18.930Z,21.60
2022-11-08T12:51:59.013Z,21.73
2022-11-08T12:54:41.786Z,22.25
2022-11-08T12:57:17.843Z,22.95
2022-11-08T12:59:58.942Z,22.83
2022-11-08T13:02:33.045Z,24.25
2022-11-08T13:05:19.815Z,23.45
2022-11-08T13:07:49.498Z,24.42
2022-11-08T13:10:39.619Z,25.67
2022-11-08T13:13:24.876Z,24.67
2022-11-08T13:16:18.421Z,25.85
2022-11-08T13:18:51.241Z,25.30
2022-11-08T13:21:34.412Z,26.15
2022-11-08T13:24:42.264Z,27.35
2022-11-08T13:27:22.729Z,24.65
2022-11-08T13:29:50.681Z,24.98
2022-11-08T13:32:39.232Z,21.65
2022-11-08T13:35:19.475Z,22.42
2022-11-08T13:38:03.303Z,22.08
2022-11-08T13:40:55.798Z,21.58
2022-11-08T13:43:34.233Z,22.48
2022-11-08T13:46:31.064Z,24.70
2022-11-08T13:49:00.645Z,24.20
2022-11-08T13:51:35.943Z,24.08
2022-11-08T13:54:26.628Z,25.10
2022-11-08T13:56:55.327Z,22.88
2022-11-08T13:59:31.469Z,23.45
2022-11-08T14:02:01.219Z,22.25
2022-11-08T14:04:38.822Z,23.23
2022-11-08T14:07:24.735Z,22.52
2022-11-08T14:10:17.043Z,21.90
2022-11-08T14:12:55.674Z,23.23
2022-11-08T14:15:31.615Z,23.25
2022-11-08T14:18:15.884Z,24.75
2022-11-08T14:20:48.293Z,24.13
2022-11-08T14:23:28.059Z,25.30
2022-11-08T14:26:04.488Z,27.40
2022-11-08T14:28:45.808Z,33.08
2022-11-08T14:31:30.613Z,38.33
2022-11-08T14:34:00.142Z,35.35
2022-11-08T14:36:32.241Z,33.45
2022-11-08T14:39:05.452Z,33.08
2022-11-08T14:41:33.656Z,32.50
2022-11-08T14:44:02.783Z,30.65
2022-11-08T14:46:36.029Z,30.80
2022-11-08T14:49:30.639Z,28.60
2022-11-08T14:52:17.982Z,27.27
2022-11-08T14:54:47.582Z,28.52
2022-11-08T14:57:35.787Z,26.77
2022-11-08T15:00:15.147Z,27.52
2022-11-08T15:02:46.057Z,25.45
2022-11-08T15:05:33.315Z,26.05
2022-11-08T15:08:02.619Z,25.65
2022-11-08T15:10:30.000Z,25.75
2022-11-08T15:13:00.164Z,26.77
2022-11-08T15:15:31.484Z,25.88
2022-11-08T15:18:11.023Z,26.63
2022-11-08T15:20:37.997Z,24.27
2022-11-08T15:23:27.822Z,26.45
2022-11-08T15:25:56.840Z,23.67
2022-11-08T15:28:28.809Z,24.52
2022-11-08T15:31:01.466Z,27.80
2022-11-08T15:33:35.837Z,26.35
2022-11-08T15:36:03.601Z,27.20
2022-11-08T15:38:37.546Z,26.02
2022-11-08T15:41:07.297Z,24.20
2022-11-08T15:43:40.445Z,25.67
2022-11-08T15:46:26.928Z,27.15
2022-11-08T15:49:00.629Z,27.85
2022-11-08T15:51:34.089Z,27.67
2022-11-08T15:54:01.254Z,25.15
2022-11-08T15:56:28.198Z,25.58
2022-11-08T15:58:55.195Z,26.23
2022-11-08T16:01:23.129Z,26.92
2022-11-08T16:03:50.317Z,27.88
2022-11-08T16:06:17.575Z,29.50
2022-11-08T16:08:44.632Z,27.83
2022-11-08T16:11:22.208Z,28.73
2022-11-08T16:13:56.060Z,28.23
2022-11-08T16:16:25.638Z,28.45
2022-11-08T16:18:53.177Z,28.30
2022-11-08T16:21:22.313Z,29.67
2022-11-08T16:24:16.425Z,28.65
2022-11-08T16:26:45.406Z,29.42
2022-11-08T16:29:26.588Z,29.73
2022-11-08T16:31:56.265Z,28.40
2022-11-08T16:34:24.679Z,29.85
2022-11-08T16:36:53.873Z,31.48
2022-11-08T16:39:26.618Z,31.10
2022-11-08T16:41:54.808Z,30.92
2022-11-08T16:47:21.157Z,33.83
2022-11-08T16:49:53.677Z,41.35
2022-11-08T16:52:20.826Z,43.67
2022-11-08T16:54:48.331Z,46.88
2022-11-08T17:00:04.955Z,33.75
2022-11-08T17:02:36.101Z,38.28
2022-11-08T17:05:09.157Z,30.65
2022-11-08T17:07:48.392Z,31.67
2022-11-08T17:10:43.130Z,31.25
2022-11-08T17:13:16.944Z,34.63
2022-11-08T17:16:00.249Z,34.35
2022-11-08T17:18:32.621Z,36.95
2022-11-08T17:24:21.517Z,33.42
2022-11-08T17:26:54.205Z,38.20
2022-11-08T17:29:55.222Z,41.03
2022-11-08T17:32:44.806Z,39.53
2022-11-08T17:35:16.568Z,36.85
2022-11-08T17:37:46.328Z,36.20
2022-11-08T17:40:13.464Z,37.80
2022-11-08T17:42:43.105Z,34.08
2022-11-08T17:45:16.924Z,35.38
2022-11-08T17:47:56.410Z,35.45
2022-11-08T17:50:44.727Z,34.53
2022-11-08T17:53:15.176Z,35.28
2022-11-08T17:55:55.362Z,38.22
2022-11-08T17:58:38.675Z,38.15
2022-11-08T18:01:25.712Z,43.75
2022-11-08T18:03:57.568Z,46.35
2022-11-08T18:06:30.245Z,50.53
2022-11-08T18:09:00.904Z,52.20
2022-11-08T18:11:59.395Z,49.63
2022-11-08T18:15:29.769Z,52.65
2022-11-08T18:17:50.791Z,46.85
2022-11-08T18:23:39.352Z,48.67
2022-11-08T18:29:46.254Z,49.55
2022-11-08T18:32:13.901Z,49.58
2022-11-08T18:34:54.526Z,53.30
2022-11-08T18:37:38.414Z,50.60
2022-11-08T18:40:38.870Z,54.85
2022-11-08T18:46:44.336Z,65.97
2022-11-08T18:52:54.238Z,46.58
2022-11-08T18:55:21.283Z,47.20
2022-11-08T18:57:48.794Z,49.28
2022-11-08T19:00:18.140Z,41.88
2022-11-08T19:02:47.284Z,41.50
2022-11-08T19:05:14.860Z,43.80
2022-11-08T19:07:41.966Z,47.58
2022-11-08T19:10:14.123Z,44.25
2022-11-08T19:12:41.117Z,45.85
2022-11-08T19:15:08.936Z,43.50
2022-11-08T19:17:36.666Z,45.58
2022-11-08T19:20:05.168Z,44.30
2022-11-08T19:22:32.442Z,42.08
2022-11-08T19:24:59.811Z,38.25
2022-11-08T19:27:27.602Z,41.33
2022-11-08T19:29:54.980Z,42.88
2022-11-08T19:32:23.506Z,37.65
2022-11-08T19:34:52.276Z,38.80
2022-11-08T19:37:19.807Z,43.22
2022-11-08T19:39:58.757Z,42.60
2022-11-08T19:42:33.545Z,38.25
2022-11-08T19:45:26.243Z,35.30
2022-11-08T19:47:53.696Z,39.58
2022-11-08T19:50:21.002Z,43.38
2022-11-08T19:52:49.728Z,34.65
2022-11-08T19:55:22.439Z,35.25
2022-11-08T19:57:50.473Z,35.05
2022-11-08T20:00:21.839Z,28.08
2022-11-08T20:02:52.883Z,28.92
2022-11-08T20:05:23.426Z,27.77
2022-11-08T20:07:51.111Z,25.67
2022-11-08T20:10:18.480Z,25.13
2022-11-08T20:12:45.672Z,26.50
2022-11-08T20:15:14.257Z,24.63
2022-11-08T20:17:42.778Z,24.70
2022-11-08T20:20:10.526Z,28.10
2022-11-08T20:22:37.862Z,32.50
2022-11-08T20:25:07.891Z,30.52
2022-11-08T20:27:35.385Z,28.63
2022-11-08T20:30:02.738Z,30.20
2022-11-08T20:32:49.421Z,33.13
2022-11-08T20:35:22.986Z,34.80
2022-11-08T20:37:50.549Z,31.33
2022-11-08T20:40:17.940Z,34.40
2022-11-08T20:42:47.770Z,33.78
2022-11-08T20:45:16.927Z,32.65
2022-11-08T20:47:44.367Z,27.98
2022-11-08T20:50:11.902Z,29.08
2022-11-08T20:52:39.598Z,29.58
2022-11-08T20:55:07.266Z,26.13
2022-11-08T20:57:34.494Z,26.45
2022-11-08T21:00:13.131Z,29.08
2022-11-08T21:02:41.379Z,27.52
2022-11-08T21:05:08.868Z,25.75
2022-11-08T21:10:42.390Z,25.83
2022-11-08T21:13:35.019Z,26.98
2022-11-08T21:16:28.244Z,26.67
2022-11-08T21:19:00.068Z,23.58
2022-11-08T21:21:35.421Z,23.58
2022-11-08T21:24:02.716Z,23.05
2022-11-08T21:26:30.367Z,24.35
2022-11-08T21:29:10.010Z,21.33
2022-11-08T21:31:39.723Z,22.02
2022-11-08T21:34:07.556Z,21.92
2022-11-08T21:39:41.967Z,21.70
2022-11-08T21:42:22.694Z,22.08
2022-11-08T21:45:46.877Z,21.95
2022-11-08T21:48:22.715Z,22.15
2022-11-08T21:51:37.891Z,23.20
2022-11-08T21:57:38.965Z,22.88
2022-11-08T22:04:04.215Z,20.67
2022-11-08T22:10:44.453Z,21.80
2022-11-08T22:13:12.636Z,21.45
2022-11-08T22:15:58.426Z,23.35
2022-11-08T22:21:53.894Z,24.92
2022-11-08T22:25:06.431Z,24.40
2022-11-08T22:27:57.894Z,24.33
2022-11-08T22:30:29.042Z,25.15
2022-11-08T22:33:31.583Z,24.23
2022-11-08T22:36:19.405Z,24.05
2022-11-08T22:39:39.612Z,25.08
2022-11-08T22:42:33.743Z,25.15
2022-11-08T22:47:47.941Z,24.95
2022-11-08T22:50:23.818Z,26.50
2022-11-08T22:52:53.012Z,27.50
2022-11-08T22:55:23.736Z,24.67
2022-11-08T22:58:13.216Z,23.20
2022-11-08T23:04:22.156Z,26.20
2022-11-08T23:07:03.875Z,23.33
2022-11-08T23:09:47.795Z,22.70
2022-11-08T23:13:28.843Z,22.40
2022-11-08T23:16:14.798Z,19.98
2022-11-08T23:19:09.943Z,21.00
2022-11-08T23:21:55.766Z,21.73
2022-11-08T23:24:23.072Z,22.52
2022-11-08T23:27:10.372Z,22.48
2022-11-08T23:29:56.469Z,20.92
2022-11-08T23:32:23.985Z,22.42
2022-11-08T23:34:51.188Z,20.98
2022-11-08T23:37:18.408Z,21.65
2022-11-08T23:40:03.975Z,20.10
2022-11-08T23:42:50.886Z,21.45
2022-11-08T23:45:21.344Z,21.58
2022-11-08T23:47:51.023Z,22.02
2022-11-08T23:50:18.465Z,18.30
2022-11-08T23:52:45.688Z,19.60
2022-11-08T23:55:13.100Z,21.48
2022-11-08T23:57:40.997Z,20.55
